createdAt,value
2018-09-23T00:00:34.407Z,1012.68
2018-09-23T00:01:34.201Z,1012.59
2018-09-23T00:04:16.337Z,1012.46
2018-09-23T00:05:16.424Z,1012.41
2018-09-23T00:06:16.199Z,1012.40
2018-09-23T00:07:16.215Z,1012.37
2018-09-23T00:08:16.033Z,1012.39
2018-09-23T00:09:16.032Z,1012.31
2018-09-23T00:10:15.864Z,1012.29
2018-09-23T00:11:15.938Z,1012.28
2018-09-23T00:12:15.746Z,1012.24
2018-09-23T00:13:15.743Z,1012.31
2018-09-23T00:14:15.523Z,1012.26
2018-09-23T00:17:08.863Z,1012.20
2018-09-23T00:18:08.883Z,1012.24
2018-09-23T00:19:08.696Z,1012.19
2018-09-23T00:20:08.678Z,1012.26
2018-09-23T00:21:08.530Z,1012.20
2018-09-23T00:22:08.489Z,1012.14
2018-09-23T00:23:08.373Z,1012.15
2018-09-23T00:24:08.392Z,1012.10
2018-09-23T00:25:08.198Z,1012.05
2018-09-23T00:26:08.189Z,1012.03
2018-09-23T00:27:08.029Z,1012.07
2018-09-23T00:28:08.025Z,1011.94
2018-09-23T00:29:07.862Z,1011.88
2018-09-23T00:30:07.909Z,1011.85
2018-09-23T00:31:07.710Z,1011.78
2018-09-23T00:32:07.719Z,1011.67
2018-09-23T00:33:07.554Z,1011.65
2018-09-23T00:34:07.567Z,1011.64
2018-09-23T00:35:07.383Z,1011.68
2018-09-23T00:36:07.330Z,1011.66
2018-09-23T00:37:07.207Z,1011.71
2018-09-23T00:38:07.239Z,1011.66
2018-09-23T00:39:07.069Z,1011.60
2018-09-23T00:40:07.048Z,1011.56
2018-09-23T00:41:06.898Z,1011.54
2018-09-23T00:42:06.861Z,1011.55
2018-09-23T00:43:06.725Z,1011.58
2018-09-23T00:44:06.711Z,1011.57
2018-09-23T00:45:06.552Z,1011.57
2018-09-23T00:46:08.522Z,1011.55
2018-09-23T00:47:06.397Z,1011.50
2018-09-23T00:48:06.386Z,1011.47
2018-09-23T00:49:06.355Z,1011.43
2018-09-23T00:50:06.196Z,1011.35
2018-09-23T00:51:06.067Z,1011.39
2018-09-23T00:52:06.111Z,1011.38
2018-09-23T00:53:05.903Z,1011.42
2018-09-23T00:54:05.961Z,1011.42
2018-09-23T00:55:05.732Z,1011.36
2018-09-23T00:56:05.731Z,1011.39
2018-09-23T00:57:05.570Z,1011.44
2018-09-23T00:58:05.526Z,1011.48
2018-09-23T00:59:05.443Z,1011.43
2018-09-23T01:01:47.355Z,1011.41
2018-09-23T01:02:47.337Z,1011.39
2018-09-23T01:03:47.183Z,1011.44
2018-09-23T01:04:47.186Z,1011.44
2018-09-23T01:05:47.032Z,1011.29
2018-09-23T01:08:28.878Z,1011.39
2018-09-23T01:09:28.905Z,1011.41
2018-09-23T01:10:28.691Z,1011.33
2018-09-23T01:11:28.661Z,1011.29
2018-09-23T01:12:28.529Z,1011.28
2018-09-23T01:13:28.570Z,1011.30
2018-09-23T01:14:28.379Z,1011.31
2018-09-23T01:15:28.407Z,1011.30
2018-09-23T01:16:28.195Z,1011.21
2018-09-23T01:17:28.188Z,1011.19
2018-09-23T01:18:28.050Z,1011.17
2018-09-23T01:19:27.998Z,1011.16
2018-09-23T01:20:27.891Z,1011.17
2018-09-23T01:21:27.903Z,1011.17
2018-09-23T01:22:27.711Z,1011.13
2018-09-23T01:23:27.712Z,1011.16
2018-09-23T01:24:27.549Z,1011.03
2018-09-23T01:25:27.554Z,1011.09
2018-09-23T01:26:27.382Z,1011.02
2018-09-23T01:27:27.343Z,1010.99
2018-09-23T01:28:27.217Z,1011.00
2018-09-23T01:29:27.237Z,1010.97
2018-09-23T01:30:27.062Z,1011.06
2018-09-23T01:31:27.080Z,1011.13
2018-09-23T01:32:26.896Z,1011.15
2018-09-23T01:33:26.861Z,1011.14
2018-09-23T01:34:26.735Z,1011.12
2018-09-23T01:35:26.768Z,1011.09
2018-09-23T01:36:26.597Z,1011.06
2018-09-23T01:37:26.584Z,1011.07
2018-09-23T01:38:26.398Z,1011.01
2018-09-23T01:39:26.390Z,1011.03
2018-09-23T01:40:26.241Z,1010.99
2018-09-23T01:41:27.262Z,1011.03
2018-09-23T01:42:26.076Z,1011.04
2018-09-23T01:43:26.104Z,1010.97
2018-09-23T01:44:25.917Z,1010.95
2018-09-23T01:47:08.378Z,1010.74
2018-09-23T01:49:50.355Z,1010.63
2018-09-23T01:50:50.331Z,1010.67
2018-09-23T01:51:50.221Z,1010.66
2018-09-23T01:54:32.368Z,1010.57
2018-09-23T01:55:32.337Z,1010.56
2018-09-23T01:56:32.217Z,1010.54
2018-09-23T01:57:32.245Z,1010.53
2018-09-23T01:58:32.035Z,1010.54
2018-09-23T01:59:32.069Z,1010.54
2018-09-23T02:00:31.871Z,1010.54
2018-09-23T02:01:31.885Z,1010.53
2018-09-23T02:02:31.700Z,1010.49
2018-09-23T02:03:31.661Z,1010.47
2018-09-23T02:04:31.540Z,1010.46
2018-09-23T02:05:31.574Z,1010.47
2018-09-23T02:06:31.396Z,1010.42
2018-09-23T02:07:31.411Z,1010.40
2018-09-23T02:08:31.216Z,1010.40
2018-09-23T02:09:31.203Z,1010.37
2018-09-23T02:10:31.056Z,1010.36
2018-09-23T02:11:31.001Z,1010.35
2018-09-23T02:12:30.907Z,1010.34
2018-09-23T02:13:30.914Z,1010.34
2018-09-23T02:14:30.735Z,1010.33
2018-09-23T02:15:30.722Z,1010.34
2018-09-23T02:16:30.566Z,1010.36
2018-09-23T02:17:30.555Z,1010.28
2018-09-23T02:18:30.398Z,1010.29
2018-09-23T02:19:30.470Z,1010.28
2018-09-23T02:20:30.238Z,1010.20
2018-09-23T02:21:30.250Z,1010.14
2018-09-23T02:22:30.101Z,1010.13
2018-09-23T02:23:30.060Z,1010.10
2018-09-23T02:24:29.909Z,1010.06
2018-09-23T02:25:29.879Z,1010.04
2018-09-23T02:26:29.750Z,1010.11
2018-09-23T02:27:29.807Z,1010.12
2018-09-23T02:28:29.587Z,1010.16
2018-09-23T02:29:29.593Z,1010.11
2018-09-23T02:30:29.424Z,1010.07
2018-09-23T02:31:29.397Z,1010.03
2018-09-23T02:32:29.275Z,1010.08
2018-09-23T02:33:29.277Z,1010.14
2018-09-23T02:34:29.109Z,1010.14
2018-09-23T02:35:29.117Z,1010.16
2018-09-23T02:36:28.942Z,1010.11
2018-09-23T02:37:28.951Z,1010.06
2018-09-23T02:38:28.769Z,1010.01
2018-09-23T02:39:28.736Z,1010.03
2018-09-23T02:40:28.599Z,1009.98
2018-09-23T02:41:28.675Z,1009.99
2018-09-23T02:42:28.457Z,1010.02
2018-09-23T02:43:28.493Z,1009.94
2018-09-23T02:44:28.275Z,1009.95
2018-09-23T02:45:28.264Z,1010.03
2018-09-23T02:46:28.105Z,1010.02
2018-09-23T02:47:28.083Z,1009.91
2018-09-23T02:48:27.977Z,1009.88
2018-09-23T02:49:27.976Z,1009.83
2018-09-23T02:50:27.789Z,1009.79
2018-09-23T02:51:27.800Z,1009.84
2018-09-23T02:52:27.628Z,1009.82
2018-09-23T02:53:27.834Z,1009.83
2018-09-23T02:54:27.464Z,1009.80
2018-09-23T02:55:27.513Z,1009.78
2018-09-23T02:56:27.298Z,1009.70
2018-09-23T02:57:27.320Z,1009.65
2018-09-23T02:58:27.157Z,1009.56
2018-09-23T02:59:27.126Z,1009.50
2018-09-23T03:00:26.965Z,1009.56
2018-09-23T03:01:26.938Z,1009.57
2018-09-23T03:02:26.803Z,1009.53
2018-09-23T03:03:26.792Z,1009.58
2018-09-23T03:04:26.641Z,1009.52
2018-09-23T03:05:26.653Z,1009.50
2018-09-23T03:06:26.477Z,1009.49
2018-09-23T03:07:26.460Z,1009.40
2018-09-23T03:08:26.336Z,1009.38
2018-09-23T03:09:26.271Z,1009.34
2018-09-23T03:10:26.150Z,1009.28
2018-09-23T03:11:26.179Z,1009.26
2018-09-23T03:12:25.993Z,1009.26
2018-09-23T03:13:26.028Z,1009.26
2018-09-23T03:14:25.868Z,1009.32
2018-09-23T03:15:25.801Z,1009.29
2018-09-23T03:16:25.677Z,1009.28
2018-09-23T03:17:25.717Z,1009.29
2018-09-23T03:18:25.508Z,1009.28
2018-09-23T03:19:25.600Z,1009.27
2018-09-23T03:20:25.339Z,1009.29
2018-09-23T03:23:07.373Z,1009.27
2018-09-23T03:24:07.352Z,1009.30
2018-09-23T03:25:07.208Z,1009.31
2018-09-23T03:27:49.393Z,1009.32
2018-09-23T03:28:51.482Z,1009.34
2018-09-23T03:29:49.259Z,1009.33
2018-09-23T03:30:51.192Z,1009.31
2018-09-23T03:31:49.050Z,1009.29
2018-09-23T03:32:51.410Z,1009.22
2018-09-23T03:33:48.891Z,1009.22
2018-09-23T03:34:51.559Z,1009.18
2018-09-23T03:35:48.743Z,1009.13
2018-09-23T03:38:34.889Z,1009.03
2018-09-23T03:39:34.874Z,1008.92
2018-09-23T03:40:34.752Z,1008.90
2018-09-23T03:41:34.687Z,1008.82
2018-09-23T03:42:34.555Z,1008.83
2018-09-23T03:43:34.593Z,1008.81
2018-09-23T03:44:34.397Z,1008.87
2018-09-23T03:45:34.419Z,1008.94
2018-09-23T03:46:34.262Z,1008.95
2018-09-23T03:49:16.382Z,1008.97
2018-09-23T03:50:16.399Z,1008.90
2018-09-23T03:51:16.255Z,1008.85
2018-09-23T03:52:16.213Z,1008.82
2018-09-23T03:53:16.079Z,1008.75
2018-09-23T03:54:16.028Z,1008.67
2018-09-23T03:55:15.886Z,1008.70
2018-09-23T03:56:16.886Z,1008.66
2018-09-23T03:57:15.735Z,1008.65
2018-09-23T03:58:15.744Z,1008.61
2018-09-23T03:59:15.573Z,1008.59
2018-09-23T04:00:15.553Z,1008.54
2018-09-23T04:01:15.416Z,1008.51
2018-09-23T04:02:15.365Z,1008.50
2018-09-23T04:03:15.240Z,1008.53
2018-09-23T04:04:15.269Z,1008.51
2018-09-23T04:05:15.077Z,1008.56
2018-09-23T04:06:15.115Z,1008.53
2018-09-23T04:07:14.918Z,1008.57
2018-09-23T04:08:14.886Z,1008.51
2018-09-23T04:09:14.757Z,1008.50
2018-09-23T04:10:14.798Z,1008.48
2018-09-23T04:11:14.787Z,1008.40
2018-09-23T04:12:14.688Z,1008.43
2018-09-23T04:13:14.421Z,1008.41
2018-09-23T04:15:56.411Z,1008.28
2018-09-23T04:16:56.411Z,1008.20
2018-09-23T04:17:56.233Z,1008.21
2018-09-23T04:18:56.262Z,1008.14
2018-09-23T04:19:56.063Z,1008.09
2018-09-23T04:20:56.023Z,1008.05
2018-09-23T04:21:55.930Z,1008.09
2018-09-23T04:22:55.935Z,1008.03
2018-09-23T04:23:55.734Z,1008.02
2018-09-23T04:26:37.905Z,1008.06
2018-09-23T04:27:37.979Z,1008.02
2018-09-23T04:28:37.772Z,1007.98
2018-09-23T04:29:37.759Z,1008.00
2018-09-23T04:30:37.563Z,1007.94
2018-09-23T04:31:37.564Z,1007.99
2018-09-23T04:32:37.399Z,1007.91
2018-09-23T04:33:37.410Z,1007.93
2018-09-23T04:34:37.250Z,1007.93
2018-09-23T04:35:37.189Z,1007.95
2018-09-23T04:36:37.077Z,1008.00
2018-09-23T04:37:37.123Z,1007.94
2018-09-23T04:38:36.934Z,1007.90
2018-09-23T04:39:36.932Z,1007.88
2018-09-23T04:40:36.749Z,1007.83
2018-09-23T04:41:36.724Z,1007.78
2018-09-23T04:42:36.608Z,1007.77
2018-09-23T04:43:36.620Z,1007.81
2018-09-23T04:44:36.469Z,1007.75
2018-09-23T04:45:36.424Z,1007.77
2018-09-23T04:46:36.257Z,1007.75
2018-09-23T04:47:36.270Z,1007.77
2018-09-23T04:48:36.147Z,1007.80
2018-09-23T04:51:18.398Z,1007.94
2018-09-23T04:52:18.347Z,1007.89
2018-09-23T04:53:18.254Z,1007.95
2018-09-23T04:56:00.395Z,1008.04
2018-09-23T04:58:42.410Z,1008.07
2018-09-23T04:59:42.357Z,1008.07
2018-09-23T05:00:42.239Z,1008.05
2018-09-23T05:01:42.274Z,1008.08
2018-09-23T05:02:42.073Z,1008.06
2018-09-23T05:03:42.111Z,1008.09
2018-09-23T05:04:41.961Z,1008.05
2018-09-23T05:05:41.887Z,1008.07
2018-09-23T05:06:41.755Z,1008.06
2018-09-23T05:09:23.901Z,1008.04
2018-09-23T05:10:23.926Z,1008.04
2018-09-23T05:11:23.739Z,1008.03
2018-09-23T05:12:23.715Z,1008.03
2018-09-23T05:13:23.579Z,1007.94
2018-09-23T05:14:23.541Z,1007.89
2018-09-23T05:15:23.433Z,1007.91
2018-09-23T05:16:23.427Z,1007.94
2018-09-23T05:17:23.248Z,1007.89
2018-09-23T05:18:23.234Z,1007.86
2018-09-23T05:19:23.104Z,1007.85
2018-09-23T05:20:23.076Z,1007.80
2018-09-23T05:21:22.944Z,1007.80
2018-09-23T05:24:05.405Z,1007.82
2018-09-23T05:25:05.412Z,1007.83
2018-09-23T05:26:05.239Z,1007.79
2018-09-23T05:27:05.281Z,1007.75
2018-09-23T05:28:05.070Z,1007.72
2018-09-23T05:30:46.923Z,1007.61
2018-09-23T05:31:46.873Z,1007.65
2018-09-23T05:32:46.746Z,1007.66
2018-09-23T05:33:46.786Z,1007.68
2018-09-23T05:34:46.577Z,1007.71
2018-09-23T05:35:46.624Z,1007.71
2018-09-23T05:36:46.421Z,1007.66
2018-09-23T05:37:46.400Z,1007.64
2018-09-23T05:38:46.272Z,1007.60
2018-09-23T05:39:46.207Z,1007.59
2018-09-23T05:40:46.109Z,1007.64
2018-09-23T05:41:46.165Z,1007.61
2018-09-23T05:42:45.932Z,1007.66
2018-09-23T05:45:27.906Z,1007.59
2018-09-23T05:46:27.976Z,1007.55
2018-09-23T05:47:27.762Z,1007.58
2018-09-23T05:48:27.734Z,1007.56
2018-09-23T05:49:27.585Z,1007.55
2018-09-23T05:50:27.540Z,1007.48
2018-09-23T05:51:27.442Z,1007.47
2018-09-23T05:52:27.454Z,1007.46
2018-09-23T05:53:27.259Z,1007.41
2018-09-23T05:54:27.267Z,1007.39
2018-09-23T05:55:27.091Z,1007.39
2018-09-23T05:56:27.123Z,1007.39
2018-09-23T05:57:26.939Z,1007.36
2018-09-23T05:58:26.980Z,1007.35
2018-09-23T05:59:26.768Z,1007.32
2018-09-23T06:00:26.792Z,1007.33
2018-09-23T06:01:26.632Z,1007.34
2018-09-23T06:02:26.603Z,1007.42
2018-09-23T06:03:26.450Z,1007.38
2018-09-23T06:04:26.411Z,1007.44
2018-09-23T06:05:26.313Z,1007.47
2018-09-23T06:06:26.321Z,1007.49
2018-09-23T06:07:26.171Z,1007.50
2018-09-23T06:08:26.132Z,1007.51
2018-09-23T06:09:25.963Z,1007.46
2018-09-23T06:10:25.934Z,1007.46
2018-09-23T06:11:25.793Z,1007.44
2018-09-23T06:12:25.779Z,1007.50
2018-09-23T06:13:25.642Z,1007.53
2018-09-23T06:14:25.656Z,1007.52
2018-09-23T06:15:25.483Z,1007.51
2018-09-23T06:18:07.936Z,1007.53
2018-09-23T06:19:28.816Z,1007.50
2018-09-23T06:20:07.753Z,1007.48
2018-09-23T06:22:49.931Z,1007.37
2018-09-23T06:23:49.884Z,1007.38
2018-09-23T06:24:49.758Z,1007.39
2018-09-23T06:25:49.790Z,1007.39
2018-09-23T06:26:49.630Z,1007.36
2018-09-23T06:27:49.643Z,1007.37
2018-09-23T06:28:49.429Z,1007.27
2018-09-23T06:29:49.430Z,1007.23
2018-09-23T06:30:49.273Z,1007.18
2018-09-23T06:31:49.227Z,1007.21
2018-09-23T06:32:49.160Z,1007.22
2018-09-23T06:33:49.147Z,1007.22
2018-09-23T06:34:48.947Z,1007.20
2018-09-23T06:35:48.934Z,1007.22
2018-09-23T06:36:48.783Z,1007.22
2018-09-23T06:37:48.790Z,1007.22
2018-09-23T06:38:48.623Z,1007.21
2018-09-23T06:39:48.661Z,1007.21
2018-09-23T06:40:48.457Z,1007.17
2018-09-23T06:41:48.473Z,1007.18
2018-09-23T06:42:48.313Z,1007.19
2018-09-23T06:43:48.387Z,1007.15
2018-09-23T06:44:48.136Z,1007.14
2018-09-23T06:45:50.332Z,1007.16
2018-09-23T06:46:47.973Z,1007.12
2018-09-23T06:47:48.071Z,1007.18
2018-09-23T06:48:47.837Z,1007.16
2018-09-23T06:49:47.812Z,1007.18
2018-09-23T06:50:47.645Z,1007.14
2018-09-23T06:53:29.957Z,1007.21
2018-09-23T06:56:11.941Z,1007.27
2018-09-23T06:57:11.992Z,1007.20
2018-09-23T06:58:11.795Z,1007.19
2018-09-23T06:59:11.802Z,1007.20
2018-09-23T07:00:11.599Z,1007.16
2018-09-23T07:02:53.423Z,1007.11
2018-09-23T07:03:53.467Z,1007.12
2018-09-23T07:04:53.282Z,1007.10
2018-09-23T07:05:53.389Z,1007.12
2018-09-23T07:06:53.161Z,1007.13
2018-09-23T07:07:53.143Z,1007.08
2018-09-23T07:08:52.959Z,1007.09
2018-09-23T07:09:52.955Z,1007.08
2018-09-23T07:10:52.780Z,1007.09
2018-09-23T07:11:52.780Z,1007.04
2018-09-23T07:12:52.625Z,1007.06
2018-09-23T07:13:52.610Z,1007.04
2018-09-23T07:14:52.461Z,1007.02
2018-09-23T07:15:52.482Z,1006.98
2018-09-23T07:16:52.296Z,1007.00
2018-09-23T07:17:52.286Z,1007.02
2018-09-23T07:18:52.203Z,1007.02
2018-09-23T07:19:52.092Z,1007.00
2018-09-23T07:20:51.978Z,1007.03
2018-09-23T07:21:52.005Z,1007.06
2018-09-23T07:22:51.803Z,1007.05
2018-09-23T07:23:51.901Z,1007.02
2018-09-23T07:24:51.651Z,1007.05
2018-09-23T07:25:51.635Z,1007.03
2018-09-23T07:26:51.499Z,1007.00
2018-09-23T07:27:51.445Z,1007.02
2018-09-23T07:28:51.334Z,1007.05
2018-09-23T07:29:51.434Z,1007.02
2018-09-23T07:30:51.174Z,1007.03
2018-09-23T07:31:51.159Z,1007.04
2018-09-23T07:32:51.006Z,1007.00
2018-09-23T07:33:50.959Z,1007.02
2018-09-23T07:34:50.852Z,1007.04
2018-09-23T07:35:50.877Z,1007.05
2018-09-23T07:36:50.731Z,1007.02
2018-09-23T07:37:50.684Z,1007.01
2018-09-23T07:38:50.514Z,1007.00
2018-09-23T07:39:50.556Z,1006.98
2018-09-23T07:40:50.357Z,1006.97
2018-09-23T07:41:50.305Z,1006.95
2018-09-23T07:42:50.203Z,1006.90
2018-09-23T07:43:50.211Z,1006.90
2018-09-23T07:44:50.052Z,1006.84
2018-09-23T07:45:50.064Z,1006.81
2018-09-23T07:46:49.871Z,1006.83
2018-09-23T07:47:49.831Z,1006.80
2018-09-23T07:48:49.708Z,1006.79
2018-09-23T07:49:49.675Z,1006.70
2018-09-23T07:50:49.540Z,1006.68
2018-09-23T07:51:49.548Z,1006.63
2018-09-23T07:52:49.385Z,1006.57
2018-09-23T07:53:49.364Z,1006.51
2018-09-23T07:54:49.286Z,1006.56
2018-09-23T07:55:49.369Z,1006.60
2018-09-23T07:56:49.063Z,1006.63
2018-09-23T07:57:49.067Z,1006.64
2018-09-23T07:58:48.944Z,1006.68
2018-09-23T07:59:48.922Z,1006.70
2018-09-23T08:00:48.751Z,1006.70
2018-09-23T08:01:48.708Z,1006.71
2018-09-23T08:02:48.576Z,1006.71
2018-09-23T08:03:48.601Z,1006.75
2018-09-23T08:04:48.421Z,1006.66
2018-09-23T08:05:48.447Z,1006.71
2018-09-23T08:06:48.253Z,1006.72
2018-09-23T08:07:48.217Z,1006.76
2018-09-23T08:08:48.106Z,1006.80
2018-09-23T08:09:48.139Z,1006.79
2018-09-23T08:10:47.964Z,1006.83
2018-09-23T08:11:47.999Z,1006.86
2018-09-23T08:12:47.854Z,1006.90
2018-09-23T08:13:47.844Z,1006.90
2018-09-23T08:14:48.036Z,1006.87
2018-09-23T08:15:47.707Z,1006.82
2018-09-23T08:16:47.445Z,1006.87
2018-09-23T08:17:47.468Z,1006.83
2018-09-23T08:18:47.393Z,1006.84
2018-09-23T08:19:47.443Z,1006.87
2018-09-23T08:20:47.215Z,1006.89
2018-09-23T08:21:47.242Z,1006.83
2018-09-23T08:22:46.974Z,1006.82
2018-09-23T08:23:46.996Z,1006.75
2018-09-23T08:24:46.802Z,1006.65
2018-09-23T08:25:46.850Z,1006.66
2018-09-23T08:26:46.634Z,1006.57
2018-09-23T08:27:46.612Z,1006.52
2018-09-23T08:28:46.493Z,1006.50
2018-09-23T08:29:46.530Z,1006.56
2018-09-23T08:30:46.407Z,1006.56
2018-09-23T08:31:46.341Z,1006.54
2018-09-23T08:32:46.172Z,1006.56
2018-09-23T08:33:46.148Z,1006.52
2018-09-23T08:34:46.015Z,1006.47
2018-09-23T08:35:45.948Z,1006.46
2018-09-23T08:36:45.852Z,1006.44
2018-09-23T08:37:45.879Z,1006.43
2018-09-23T08:38:45.677Z,1006.35
2018-09-23T08:39:45.738Z,1006.38
2018-09-23T08:40:45.520Z,1006.36
2018-09-23T08:41:45.629Z,1006.36
2018-09-23T08:42:45.408Z,1006.36
2018-09-23T08:43:45.397Z,1006.31
2018-09-23T08:44:45.192Z,1006.26
2018-09-23T08:45:45.196Z,1006.18
2018-09-23T08:46:45.060Z,1006.20
2018-09-23T08:47:45.065Z,1006.24
2018-09-23T08:48:44.909Z,1006.27
2018-09-23T08:49:44.821Z,1006.31
2018-09-23T08:50:44.710Z,1006.36
2018-09-23T08:51:44.761Z,1006.39
2018-09-23T08:52:44.597Z,1006.44
2018-09-23T08:53:44.545Z,1006.47
2018-09-23T08:54:44.399Z,1006.45
2018-09-23T08:55:44.344Z,1006.45
2018-09-23T08:56:44.246Z,1006.39
2018-09-23T08:57:44.356Z,1006.32
2018-09-23T08:58:44.096Z,1006.26
2018-09-23T08:59:44.070Z,1006.27
2018-09-23T09:00:43.932Z,1006.27
2018-09-23T09:01:43.898Z,1006.14
2018-09-23T09:02:43.751Z,1006.11
2018-09-23T09:03:43.801Z,1006.03
2018-09-23T09:04:43.585Z,1006.01
2018-09-23T09:05:43.601Z,1006.07
2018-09-23T09:06:43.424Z,1006.00
2018-09-23T09:07:43.424Z,1006.06
2018-09-23T09:08:43.265Z,1006.04
2018-09-23T09:09:43.214Z,1006.06
2018-09-23T09:10:43.114Z,1006.04
2018-09-23T09:11:43.164Z,1005.97
2018-09-23T09:12:42.967Z,1005.97
2018-09-23T09:13:42.946Z,1005.94
2018-09-23T09:14:42.782Z,1005.88
2018-09-23T09:15:42.746Z,1005.80
2018-09-23T09:16:42.610Z,1005.79
2018-09-23T09:17:42.695Z,1005.77
2018-09-23T09:18:42.589Z,1005.79
2018-09-23T09:19:42.464Z,1005.84
2018-09-23T09:20:42.291Z,1005.88
2018-09-23T09:21:42.268Z,1005.90
2018-09-23T09:22:42.158Z,1005.88
2018-09-23T09:23:42.134Z,1005.89
2018-09-23T09:24:41.990Z,1005.86
2018-09-23T09:25:41.984Z,1005.90
2018-09-23T09:26:41.887Z,1005.82
2018-09-23T09:27:41.793Z,1005.87
2018-09-23T09:28:41.665Z,1005.83
2018-09-23T09:29:41.613Z,1005.81
2018-09-23T09:30:41.495Z,1005.74
2018-09-23T09:31:41.534Z,1005.69
2018-09-23T09:32:41.341Z,1005.69
2018-09-23T09:33:41.469Z,1005.68
2018-09-23T09:34:41.171Z,1005.63
2018-09-23T09:35:41.140Z,1005.60
2018-09-23T09:36:41.005Z,1005.59
2018-09-23T09:37:41.045Z,1005.50
2018-09-23T09:38:40.882Z,1005.46
2018-09-23T09:39:40.909Z,1005.45
2018-09-23T09:40:40.669Z,1005.41
2018-09-23T09:41:40.668Z,1005.44
2018-09-23T09:42:40.539Z,1005.44
2018-09-23T09:43:40.576Z,1005.43
2018-09-23T09:44:40.377Z,1005.34
2018-09-23T09:45:40.381Z,1005.32
2018-09-23T09:46:40.199Z,1005.24
2018-09-23T09:47:40.205Z,1005.24
2018-09-23T09:48:40.091Z,1005.21
2018-09-23T09:49:40.022Z,1005.19
2018-09-23T09:50:39.870Z,1005.20
2018-09-23T09:51:39.910Z,1005.14
2018-09-23T09:52:39.716Z,1005.14
2018-09-23T09:53:39.722Z,1005.12
2018-09-23T09:54:39.588Z,1005.05
2018-09-23T09:55:39.537Z,1005.10
2018-09-23T09:56:39.379Z,1005.06
2018-09-23T09:57:39.472Z,1005.06
2018-09-23T09:58:39.243Z,1005.02
2018-09-23T09:59:39.290Z,1004.92
2018-09-23T10:00:39.092Z,1004.90
2018-09-23T10:01:39.042Z,1004.86
2018-09-23T10:02:38.914Z,1004.83
2018-09-23T10:03:39.263Z,1004.83
2018-09-23T10:04:38.770Z,1004.76
2018-09-23T10:05:38.820Z,1004.74
2018-09-23T10:06:38.601Z,1004.70
2018-09-23T10:07:38.573Z,1004.59
2018-09-23T10:08:38.417Z,1004.58
2018-09-23T10:09:38.388Z,1004.51
2018-09-23T10:10:38.290Z,1004.50
2018-09-23T10:11:38.379Z,1004.44
2018-09-23T10:12:38.092Z,1004.39
2018-09-23T10:13:38.105Z,1004.38
2018-09-23T10:14:37.937Z,1004.35
2018-09-23T10:15:37.968Z,1004.35
2018-09-23T10:16:37.797Z,1004.38
2018-09-23T10:17:37.830Z,1004.43
2018-09-23T10:18:37.619Z,1004.49
2018-09-23T10:19:37.638Z,1004.52
2018-09-23T10:20:37.510Z,1004.53
2018-09-23T10:21:37.447Z,1004.54
2018-09-23T10:22:37.332Z,1004.48
2018-09-23T10:23:37.516Z,1004.48
2018-09-23T10:24:37.125Z,1004.49
2018-09-23T10:25:37.166Z,1004.45
2018-09-23T10:26:36.984Z,1004.40
2018-09-23T10:27:36.972Z,1004.36
2018-09-23T10:28:36.810Z,1004.39
2018-09-23T10:29:36.775Z,1004.45
2018-09-23T10:30:36.656Z,1004.49
2018-09-23T10:31:36.619Z,1004.48
2018-09-23T10:32:36.478Z,1004.49
2018-09-23T10:33:36.502Z,1004.46
2018-09-23T10:34:36.320Z,1004.51
2018-09-23T10:35:36.302Z,1004.55
2018-09-23T10:36:36.193Z,1004.53
2018-09-23T10:37:36.214Z,1004.52
2018-09-23T10:38:36.006Z,1004.56
2018-09-23T10:39:36.019Z,1004.64
2018-09-23T10:40:35.837Z,1004.65
2018-09-23T10:41:35.885Z,1004.67
2018-09-23T10:42:35.678Z,1004.75
2018-09-23T10:43:35.647Z,1004.76
2018-09-23T10:44:35.521Z,1004.79
2018-09-23T10:45:35.568Z,1004.79
2018-09-23T10:46:35.378Z,1004.75
2018-09-23T10:47:35.354Z,1004.75
2018-09-23T10:48:35.206Z,1004.79
2018-09-23T10:49:35.163Z,1004.81
2018-09-23T10:50:35.038Z,1004.88
2018-09-23T10:51:35.007Z,1004.89
2018-09-23T10:52:34.881Z,1004.91
2018-09-23T10:53:34.916Z,1004.90
2018-09-23T10:54:34.713Z,1004.93
2018-09-23T10:55:34.714Z,1004.95
2018-09-23T10:56:34.698Z,1004.94
2018-09-23T10:57:34.527Z,1004.82
2018-09-23T10:58:34.408Z,1004.78
2018-09-23T10:59:34.468Z,1004.62
2018-09-23T11:00:34.236Z,1004.50
2018-09-23T11:01:34.254Z,1004.44
2018-09-23T11:02:34.068Z,1004.34
2018-09-23T11:03:34.090Z,1004.31
2018-09-23T11:04:33.921Z,1004.31
2018-09-23T11:05:33.963Z,1004.28
2018-09-23T11:06:33.748Z,1004.30
2018-09-23T11:07:33.836Z,1004.10
2018-09-23T11:08:33.595Z,1004.07
2018-09-23T11:09:33.609Z,1004.05
2018-09-23T11:10:33.443Z,1004.08
2018-09-23T11:11:33.368Z,1004.11
2018-09-23T11:12:33.253Z,1004.17
2018-09-23T11:13:33.305Z,1004.22
2018-09-23T11:14:33.094Z,1004.18
2018-09-23T11:15:33.104Z,1004.24
2018-09-23T11:16:32.954Z,1004.16
2018-09-23T11:17:32.894Z,1004.12
2018-09-23T11:18:32.793Z,1004.08
2018-09-23T11:19:32.852Z,1004.07
2018-09-23T11:20:32.603Z,1003.99
2018-09-23T11:21:32.612Z,1003.84
2018-09-23T11:22:32.448Z,1003.73
2018-09-23T11:23:32.488Z,1003.62
2018-09-23T11:24:32.272Z,1003.58
2018-09-23T11:25:32.237Z,1003.56
2018-09-23T11:26:32.149Z,1003.59
2018-09-23T11:27:32.170Z,1003.56
2018-09-23T11:28:31.997Z,1003.58
2018-09-23T11:29:31.951Z,1003.49
2018-09-23T11:30:31.832Z,1003.41
2018-09-23T11:31:31.759Z,1003.33
2018-09-23T11:32:31.641Z,1003.30
2018-09-23T11:33:31.673Z,1003.31
2018-09-23T11:34:31.491Z,1003.34
2018-09-23T11:35:31.592Z,1003.28
2018-09-23T11:36:31.303Z,1003.17
2018-09-23T11:37:31.294Z,1003.08
2018-09-23T11:38:31.149Z,1002.85
2018-09-23T11:39:31.163Z,1002.60
2018-09-23T11:40:30.988Z,1002.44
2018-09-23T11:41:30.922Z,1002.44
2018-09-23T11:42:30.839Z,1002.45
2018-09-23T11:43:30.826Z,1002.50
2018-09-23T11:44:30.699Z,1002.51
2018-09-23T11:45:30.597Z,1002.56
2018-09-23T11:46:30.490Z,1002.46
2018-09-23T11:47:30.414Z,1002.39
2018-09-23T11:48:30.354Z,1002.32
2018-09-23T11:49:30.296Z,1002.38
2018-09-23T11:50:30.252Z,1002.50
2018-09-23T11:53:12.015Z,1002.91
2018-09-23T11:54:11.950Z,1003.17
2018-09-23T11:55:11.893Z,1003.32
2018-09-23T12:21:34.176Z,1003.78
2018-09-23T12:22:34.151Z,1003.74
2018-09-23T12:23:33.987Z,1003.82
2018-09-23T12:24:33.962Z,1003.90
2018-09-23T12:25:33.913Z,1004.02
2018-09-23T12:26:33.813Z,1004.01
2018-09-23T12:27:33.659Z,1004.07
2018-09-23T12:28:33.677Z,1004.04
2018-09-23T12:29:33.518Z,1004.01
2018-09-23T12:30:33.500Z,1003.95
2018-09-23T12:31:33.339Z,1004.04
2018-09-23T12:32:33.298Z,1004.11
2018-09-23T12:33:33.172Z,1004.26
2018-09-23T12:34:33.205Z,1004.33
2018-09-23T12:35:33.029Z,1004.35
2018-09-23T12:36:33.078Z,1004.34
2018-09-23T12:37:32.862Z,1004.43
2018-09-23T12:38:33.260Z,1004.45
2018-09-23T12:39:32.713Z,1004.55
2018-09-23T12:42:14.529Z,1004.62
2018-09-23T12:43:14.538Z,1004.49
2018-09-23T12:44:14.372Z,1004.36
2018-09-23T12:45:14.368Z,1004.29
2018-09-23T12:46:14.287Z,1004.19
2018-09-23T12:47:14.386Z,1004.11
2018-09-23T12:48:14.032Z,1004.16
2018-09-23T12:49:14.060Z,1004.07
2018-09-23T12:50:13.853Z,1004.03
2018-09-23T12:51:13.868Z,1004.20
2018-09-23T12:52:13.725Z,1004.41
2018-09-23T12:53:13.682Z,1004.50
2018-09-23T12:54:13.553Z,1004.64
2018-09-23T12:55:13.486Z,1004.72
2018-09-23T12:56:13.381Z,1004.79
2018-09-23T12:57:13.438Z,1004.74
2018-09-23T12:58:13.215Z,1004.68
2018-09-23T12:59:13.220Z,1004.57
2018-09-23T13:00:13.058Z,1004.52
2018-09-23T13:01:13.014Z,1004.56
2018-09-23T13:02:12.911Z,1004.50
2018-09-23T13:03:12.991Z,1004.44
2018-09-23T13:04:12.726Z,1004.40
2018-09-23T13:05:12.750Z,1004.32
2018-09-23T13:06:12.563Z,1004.31
2018-09-23T13:07:12.537Z,1004.20
2018-09-23T13:08:12.436Z,1004.06
2018-09-23T13:09:12.441Z,1003.97
2018-09-23T13:10:12.249Z,1003.99
2018-09-23T13:11:12.255Z,1004.09
2018-09-23T13:12:12.071Z,1004.19
2018-09-23T13:13:12.031Z,1004.24
2018-09-23T13:14:11.918Z,1004.40
2018-09-23T13:15:11.850Z,1004.43
2018-09-23T13:16:11.750Z,1004.40